LVHKT SAZM-SADF
Flight info
| Callsign | LVHKT |
|---|---|
| Flight time | N/A |
| Altitude | 19000 |
| Route | PULPA1D PULPA W31 TENIL/N0232F180 DCT EZE DCT TRINI |
| Aircraft | B58T/L-SDFGRY/C |
Departure
| Time | N/A |
|---|---|
| Airport | Ástor Piazzola International Airport (SAZM) |
Arrival
| Time | 2026-04-21 17:04 |
|---|---|
| Airport | San Fernando Airport (SADF) |
| Time | Latitude | Longitude | Altitude | Speed | Heading |
|---|---|---|---|---|---|
| 2026-04-21 16:14 | -36.55909 | -57.03878 | 23083 ft | 171 kts | 323° |
| 2026-04-21 16:14 | -36.54884 | -57.04691 | 23097 ft | 178 kts | 323° |
| 2026-04-21 16:14 | -36.53819 | -57.05535 | 23097 ft | 185 kts | 323° |
| 2026-04-21 16:15 | -36.52721 | -57.06406 | 23100 ft | 189 kts | 323° |
| 2026-04-21 16:15 | -36.51599 | -57.07294 | 23098 ft | 193 kts | 324° |
| 2026-04-21 16:15 | -36.50459 | -57.08196 | 23095 ft | 196 kts | 324° |
| 2026-04-21 16:15 | -36.49306 | -57.09110 | 23098 ft | 197 kts | 324° |
| 2026-04-21 16:16 | -36.48138 | -57.10032 | 23092 ft | 201 kts | 324° |
| 2026-04-21 16:16 | -36.46973 | -57.10962 | 23096 ft | 202 kts | 324° |
| 2026-04-21 16:16 | -36.45772 | -57.11907 | 23095 ft | 206 kts | 324° |
| 2026-04-21 16:16 | -36.44559 | -57.12864 | 23092 ft | 208 kts | 324° |
| 2026-04-21 16:17 | -36.43335 | -57.13831 | 23089 ft | 208 kts | 324° |
| 2026-04-21 16:17 | -36.42112 | -57.14798 | 23089 ft | 207 kts | 324° |
| 2026-04-21 16:17 | -36.40895 | -57.15758 | 23091 ft | 206 kts | 324° |
| 2026-04-21 16:17 | -36.39683 | -57.16715 | 23087 ft | 206 kts | 324° |
| 2026-04-21 16:18 | -36.38475 | -57.17669 | 23089 ft | 206 kts | 324° |
| 2026-04-21 16:18 | -36.37274 | -57.18607 | 23085 ft | 203 kts | 324° |
| 2026-04-21 16:18 | -36.36108 | -57.19530 | 23279 ft | 193 kts | 323° |
| 2026-04-21 16:18 | -36.35014 | -57.20397 | 23502 ft | 185 kts | 323° |
| 2026-04-21 16:19 | -36.33949 | -57.21238 | 23720 ft | 178 kts | 323° |
| 2026-04-21 16:19 | -36.32923 | -57.22045 | 23899 ft | 171 kts | 323° |
| 2026-04-21 16:19 | -36.31938 | -57.22823 | 24088 ft | 165 kts | 323° |
| 2026-04-21 16:19 | -36.30986 | -57.23572 | 24277 ft | 159 kts | 323° |
| 2026-04-21 16:20 | -36.30067 | -57.24294 | 24464 ft | 153 kts | 323° |
| 2026-04-21 16:20 | -36.29186 | -57.24987 | 24653 ft | 147 kts | 322° |
| 2026-04-21 16:20 | -36.28339 | -57.25656 | 24851 ft | 142 kts | 322° |
| 2026-04-21 16:20 | -36.27509 | -57.26309 | 25058 ft | 142 kts | 322° |
| 2026-04-21 16:21 | -36.26674 | -57.26964 | 25267 ft | 142 kts | 322° |
| 2026-04-21 16:21 | -36.25837 | -57.27625 | 25481 ft | 143 kts | 322° |
| 2026-04-21 16:21 | -36.24999 | -57.28283 | 25695 ft | 145 kts | 323° |
| 2026-04-21 16:21 | -36.24136 | -57.28961 | 25913 ft | 144 kts | 323° |
| 2026-04-21 16:22 | -36.23308 | -57.29610 | 26121 ft | 140 kts | 322° |
| 2026-04-21 16:22 | -36.22505 | -57.30239 | 26322 ft | 132 kts | 322° |
| 2026-04-21 16:22 | -36.21757 | -57.30826 | 26512 ft | 122 kts | 321° |
| 2026-04-21 16:22 | -36.21069 | -57.31365 | 26696 ft | 112 kts | 321° |
| 2026-04-21 16:23 | -36.20440 | -57.31857 | 26806 ft | 106 kts | 321° |
| 2026-04-21 16:23 | -36.19987 | -57.32169 | 23749 ft | 97 kts | 334° |
| 2026-04-21 16:23 | -36.19477 | -57.33220 | 17423 ft | 300 kts | 306° |
| 2026-04-21 16:23 | -36.17924 | -57.34800 | 16736 ft | 278 kts | 344° |
| 2026-04-21 16:24 | -36.16339 | -57.33657 | 16446 ft | 293 kts | 58° |
| 2026-04-21 16:24 | -36.15574 | -57.31387 | 16164 ft | 283 kts | 56° |
| 2026-04-21 16:24 | -36.14295 | -57.29681 | 15889 ft | 263 kts | 27° |
| 2026-04-21 16:24 | -36.12627 | -57.29067 | 15632 ft | 245 kts | 355° |
| 2026-04-21 16:25 | -36.11072 | -57.29663 | 15383 ft | 231 kts | 323° |
| 2026-04-21 16:25 | -36.10131 | -57.31209 | 15130 ft | 226 kts | 292° |
| 2026-04-21 16:25 | -36.09703 | -57.33063 | 14895 ft | 223 kts | 286° |
| 2026-04-21 16:25 | -36.09345 | -57.34949 | 14449 ft | 228 kts | 285° |
| 2026-04-21 16:26 | -36.08960 | -57.36872 | 13988 ft | 232 kts | 288° |
| 2026-04-21 16:26 | -36.08402 | -57.38749 | 13491 ft | 233 kts | 295° |
| 2026-04-21 16:26 | -36.07632 | -57.40515 | 12980 ft | 233 kts | 302° |
| 2026-04-21 16:26 | -36.06672 | -57.42137 | 12474 ft | 233 kts | 310° |
| 2026-04-21 16:27 | -36.05523 | -57.43553 | 11977 ft | 235 kts | 320° |
| 2026-04-21 16:27 | -36.04180 | -57.44689 | 11505 ft | 240 kts | 328° |
| 2026-04-21 16:27 | -36.02709 | -57.45749 | 11019 ft | 247 kts | 329° |
| 2026-04-21 16:27 | -36.01240 | -57.46854 | 10538 ft | 247 kts | 328° |
| 2026-04-21 16:28 | -35.99798 | -57.47996 | 10067 ft | 245 kts | 328° |
| 2026-04-21 16:28 | -35.98365 | -57.49124 | 9558 ft | 243 kts | 328° |
| 2026-04-21 16:28 | -35.96933 | -57.50238 | 9040 ft | 241 kts | 329° |
| 2026-04-21 16:28 | -35.95532 | -57.51327 | 8535 ft | 240 kts | 328° |
| 2026-04-21 16:29 | -35.94122 | -57.52425 | 8092 ft | 237 kts | 328° |
| 2026-04-21 16:29 | -35.92782 | -57.53470 | 8064 ft | 220 kts | 328° |
| 2026-04-21 16:29 | -35.91519 | -57.54451 | 8051 ft | 210 kts | 328° |
| 2026-04-21 16:29 | -35.90295 | -57.55403 | 8051 ft | 207 kts | 328° |
| 2026-04-21 16:30 | -35.89086 | -57.56343 | 8054 ft | 204 kts | 328° |
| 2026-04-21 16:30 | -35.87889 | -57.57275 | 8053 ft | 203 kts | 328° |
| 2026-04-21 16:30 | -35.86697 | -57.58201 | 8054 ft | 202 kts | 328° |
| 2026-04-21 16:30 | -35.85507 | -57.59126 | 8055 ft | 202 kts | 328° |
| 2026-04-21 16:31 | -35.84317 | -57.60053 | 8049 ft | 202 kts | 328° |
| 2026-04-21 16:31 | -35.83128 | -57.60973 | 8048 ft | 201 kts | 328° |
| 2026-04-21 16:31 | -35.81950 | -57.61887 | 8139 ft | 196 kts | 328° |
| 2026-04-21 16:31 | -35.80824 | -57.62762 | 8453 ft | 188 kts | 328° |
| 2026-04-21 16:32 | -35.79761 | -57.63584 | 8763 ft | 179 kts | 327° |
| 2026-04-21 16:32 | -35.78724 | -57.64390 | 9078 ft | 174 kts | 327° |
| 2026-04-21 16:32 | -35.77715 | -57.65169 | 9395 ft | 169 kts | 327° |
| 2026-04-21 16:32 | -35.76727 | -57.65930 | 9733 ft | 166 kts | 327° |
| 2026-04-21 16:33 | -35.75760 | -57.66682 | 10052 ft | 163 kts | 326° |
| 2026-04-21 16:33 | -35.74806 | -57.67421 | 10354 ft | 160 kts | 327° |
| 2026-04-21 16:33 | -35.73863 | -57.68146 | 10655 ft | 159 kts | 326° |
| 2026-04-21 16:33 | -35.72929 | -57.68875 | 10961 ft | 159 kts | 326° |
| 2026-04-21 16:34 | -35.71838 | -57.69231 | 11056 ft | 177 kts | 2° |
| 2026-04-21 16:34 | -35.70601 | -57.68839 | 11062 ft | 192 kts | 11° |
| 2026-04-21 16:34 | -35.69297 | -57.68340 | 11061 ft | 200 kts | 12° |
| 2026-04-21 16:34 | -35.67935 | -57.68130 | 11061 ft | 197 kts | 351° |
| 2026-04-21 16:35 | -35.66565 | -57.68356 | 11058 ft | 200 kts | 347° |
| 2026-04-21 16:35 | -35.65187 | -57.68627 | 11059 ft | 201 kts | 347° |
| 2026-04-21 16:35 | -35.63795 | -57.68905 | 11059 ft | 203 kts | 347° |
| 2026-04-21 16:35 | -35.62395 | -57.69188 | 11056 ft | 204 kts | 347° |
| 2026-04-21 16:36 | -35.60991 | -57.69474 | 11060 ft | 205 kts | 347° |
| 2026-04-21 16:36 | -35.59582 | -57.69760 | 11060 ft | 205 kts | 347° |
| 2026-04-21 16:36 | -35.58179 | -57.70095 | 11048 ft | 204 kts | 337° |
| 2026-04-21 16:36 | -35.57080 | -57.71147 | 11052 ft | 202 kts | 309° |
| 2026-04-21 16:37 | -35.56184 | -57.72441 | 11177 ft | 198 kts | 312° |
| 2026-04-21 16:37 | -35.55224 | -57.73590 | 11475 ft | 188 kts | 316° |
| 2026-04-21 16:37 | -35.54276 | -57.74637 | 11787 ft | 179 kts | 316° |
| 2026-04-21 16:37 | -35.53366 | -57.75639 | 12097 ft | 173 kts | 316° |
| 2026-04-21 16:38 | -35.52482 | -57.76621 | 12413 ft | 169 kts | 316° |
| 2026-04-21 16:38 | -35.51619 | -57.77580 | 12733 ft | 166 kts | 315° |
| 2026-04-21 16:38 | -35.50766 | -57.78528 | 13027 ft | 166 kts | 315° |
| 2026-04-21 16:38 | -35.49874 | -57.79522 | 13040 ft | 179 kts | 315° |
| 2026-04-21 16:39 | -35.48928 | -57.80571 | 13049 ft | 187 kts | 315° |
| 2026-04-21 16:39 | -35.47940 | -57.81665 | 13046 ft | 194 kts | 315° |
| 2026-04-21 16:39 | -35.46942 | -57.82771 | 13045 ft | 198 kts | 316° |
| 2026-04-21 16:39 | -35.45910 | -57.83914 | 13043 ft | 201 kts | 316° |
| 2026-04-21 16:40 | -35.44869 | -57.85066 | 13046 ft | 203 kts | 316° |
| 2026-04-21 16:40 | -35.43819 | -57.86229 | 13043 ft | 204 kts | 316° |
| 2026-04-21 16:40 | -35.42764 | -57.87397 | 13043 ft | 204 kts | 316° |
| 2026-04-21 16:40 | -35.41707 | -57.88566 | 13032 ft | 205 kts | 315° |
| 2026-04-21 16:41 | -35.41008 | -57.89340 | 13033 ft | 205 kts | 315° |
| 2026-04-21 16:41 | -35.39591 | -57.90907 | 13034 ft | 205 kts | 315° |
| 2026-04-21 16:41 | -35.38528 | -57.92084 | 13038 ft | 206 kts | 315° |
| 2026-04-21 16:41 | -35.37458 | -57.93267 | 13039 ft | 209 kts | 316° |
| 2026-04-21 16:42 | -35.36392 | -57.94444 | 13033 ft | 208 kts | 316° |
| 2026-04-21 16:42 | -35.35319 | -57.95629 | 13031 ft | 207 kts | 315° |
| 2026-04-21 16:42 | -35.34251 | -57.96808 | 13030 ft | 206 kts | 315° |
| 2026-04-21 16:42 | -35.33182 | -57.97989 | 13029 ft | 206 kts | 315° |
| 2026-04-21 16:43 | -35.32118 | -57.99162 | 13029 ft | 205 kts | 315° |
| 2026-04-21 16:43 | -35.31056 | -58.00334 | 13028 ft | 205 kts | 315° |
| 2026-04-21 16:43 | -35.29995 | -58.01504 | 13028 ft | 205 kts | 315° |
| 2026-04-21 16:43 | -35.28934 | -58.02673 | 13025 ft | 205 kts | 316° |
| 2026-04-21 16:44 | -35.27874 | -58.03841 | 13022 ft | 205 kts | 315° |
| 2026-04-21 16:44 | -35.26811 | -58.05011 | 13022 ft | 205 kts | 316° |
| 2026-04-21 16:44 | -35.25750 | -58.06178 | 13015 ft | 205 kts | 315° |
| 2026-04-21 16:44 | -35.24706 | -58.07328 | 13015 ft | 204 kts | 315° |
| 2026-04-21 16:45 | -35.23648 | -58.08492 | 13015 ft | 204 kts | 315° |
| 2026-04-21 16:45 | -35.22591 | -58.09654 | 13015 ft | 204 kts | 315° |
| 2026-04-21 16:45 | -35.21533 | -58.10816 | 13014 ft | 204 kts | 315° |
| 2026-04-21 16:45 | -35.20479 | -58.11975 | 13014 ft | 204 kts | 315° |
| 2026-04-21 16:46 | -35.19422 | -58.13137 | 13012 ft | 205 kts | 315° |
| 2026-04-21 16:46 | -35.18363 | -58.14299 | 13012 ft | 205 kts | 315° |
| 2026-04-21 16:46 | -35.17303 | -58.15463 | 13009 ft | 205 kts | 315° |
| 2026-04-21 16:46 | -35.16244 | -58.16624 | 13009 ft | 205 kts | 315° |
| 2026-04-21 16:47 | -35.15184 | -58.17787 | 13009 ft | 205 kts | 315° |
| 2026-04-21 16:47 | -35.14121 | -58.18952 | 13016 ft | 206 kts | 315° |
| 2026-04-21 16:47 | -35.13046 | -58.20130 | 13032 ft | 209 kts | 315° |
| 2026-04-21 16:47 | -35.11959 | -58.21320 | 13024 ft | 210 kts | 315° |
| 2026-04-21 16:48 | -35.10867 | -58.22517 | 13025 ft | 211 kts | 316° |
| 2026-04-21 16:48 | -35.09774 | -58.23713 | 13004 ft | 210 kts | 315° |
| 2026-04-21 16:48 | -35.08691 | -58.24898 | 13001 ft | 208 kts | 315° |
| 2026-04-21 16:48 | -35.07621 | -58.26070 | 13002 ft | 206 kts | 315° |
| 2026-04-21 16:49 | -35.06555 | -58.27235 | 13000 ft | 205 kts | 315° |
| 2026-04-21 16:49 | -35.05494 | -58.28394 | 12999 ft | 204 kts | 315° |
| 2026-04-21 16:49 | -35.04449 | -58.29536 | 12997 ft | 204 kts | 315° |
| 2026-04-21 16:49 | -35.03392 | -58.30691 | 12996 ft | 203 kts | 315° |
| 2026-04-21 16:50 | -35.02339 | -58.31842 | 12994 ft | 203 kts | 315° |
| 2026-04-21 16:50 | -35.01284 | -58.32992 | 12994 ft | 203 kts | 315° |
| 2026-04-21 16:50 | -35.00232 | -58.34141 | 12993 ft | 203 kts | 315° |
| 2026-04-21 16:50 | -34.99183 | -58.35287 | 12992 ft | 203 kts | 315° |
| 2026-04-21 16:51 | -34.98136 | -58.36427 | 12993 ft | 202 kts | 315° |
| 2026-04-21 16:51 | -34.97089 | -58.37568 | 12991 ft | 202 kts | 315° |
| 2026-04-21 16:51 | -34.96042 | -58.38708 | 12990 ft | 202 kts | 315° |
| 2026-04-21 16:51 | -34.94990 | -58.39855 | 12990 ft | 202 kts | 315° |
| 2026-04-21 16:52 | -34.93939 | -58.41000 | 12990 ft | 203 kts | 315° |
| 2026-04-21 16:52 | -34.92887 | -58.42145 | 12990 ft | 203 kts | 315° |
| 2026-04-21 16:52 | -34.92190 | -58.42903 | 12991 ft | 203 kts | 315° |
| 2026-04-21 16:52 | -34.90785 | -58.44432 | 12993 ft | 205 kts | 315° |
| 2026-04-21 16:53 | -34.89719 | -58.45591 | 12997 ft | 206 kts | 315° |
| 2026-04-21 16:53 | -34.88642 | -58.46760 | 13000 ft | 208 kts | 316° |
| 2026-04-21 16:53 | -34.87555 | -58.47941 | 13010 ft | 209 kts | 316° |
| 2026-04-21 16:53 | -34.86450 | -58.49142 | 12677 ft | 220 kts | 316° |
| 2026-04-21 16:54 | -34.85290 | -58.50401 | 12230 ft | 225 kts | 316° |
| 2026-04-21 16:54 | -34.84117 | -58.51673 | 11785 ft | 227 kts | 316° |
| 2026-04-21 16:54 | -34.82937 | -58.52951 | 11351 ft | 227 kts | 316° |
| 2026-04-21 16:54 | -34.81720 | -58.54173 | 10918 ft | 227 kts | 320° |
| 2026-04-21 16:55 | -34.80488 | -58.55379 | 10486 ft | 227 kts | 318° |
| 2026-04-21 16:55 | -34.79274 | -58.56597 | 10065 ft | 226 kts | 318° |
| 2026-04-21 16:55 | -34.78054 | -58.57798 | 9619 ft | 225 kts | 319° |
| 2026-04-21 16:55 | -34.76855 | -58.58970 | 9161 ft | 224 kts | 319° |
| 2026-04-21 16:56 | -34.75635 | -58.60162 | 8717 ft | 224 kts | 319° |
| 2026-04-21 16:56 | -34.74421 | -58.61349 | 8266 ft | 223 kts | 319° |
| 2026-04-21 16:56 | -34.73116 | -58.62362 | 7817 ft | 227 kts | 339° |
| 2026-04-21 16:56 | -34.71532 | -58.62565 | 7346 ft | 232 kts | 355° |
| 2026-04-21 16:57 | -34.69908 | -58.62676 | 6822 ft | 234 kts | 350° |
| 2026-04-21 16:57 | -34.68301 | -58.63049 | 6224 ft | 235 kts | 341° |
| 2026-04-21 16:57 | -34.66797 | -58.63819 | 5603 ft | 235 kts | 329° |
| 2026-04-21 16:57 | -34.65413 | -58.64818 | 4992 ft | 234 kts | 327° |
| 2026-04-21 16:58 | -34.63996 | -58.65805 | 4381 ft | 234 kts | 330° |
| 2026-04-21 16:58 | -34.62557 | -58.66738 | 3759 ft | 233 kts | 331° |
| 2026-04-21 16:58 | -34.61140 | -58.67682 | 3154 ft | 230 kts | 330° |
| 2026-04-21 16:58 | -34.59808 | -58.68575 | 3019 ft | 209 kts | 331° |
| 2026-04-21 16:59 | -34.58610 | -58.69379 | 3009 ft | 184 kts | 331° |
| 2026-04-21 16:59 | -34.57524 | -58.70097 | 2984 ft | 172 kts | 331° |
| 2026-04-21 16:59 | -34.56419 | -58.70678 | 2772 ft | 174 kts | 351° |
| 2026-04-21 16:59 | -34.55235 | -58.70447 | 2564 ft | 175 kts | 20° |
| 2026-04-21 17:00 | -34.54119 | -58.69898 | 2490 ft | 168 kts | 20° |
| 2026-04-21 17:00 | -34.53074 | -58.69325 | 2458 ft | 165 kts | 32° |
| 2026-04-21 17:00 | -34.52526 | -58.68774 | 2482 ft | 144 kts | 43° |
| 2026-04-21 17:00 | -34.51991 | -58.67744 | 2082 ft | 151 kts | 68° |
| 2026-04-21 17:01 | -34.51717 | -58.66498 | 1700 ft | 147 kts | 69° |
| 2026-04-21 17:01 | -34.51018 | -58.65234 | 1375 ft | 133 kts | 33° |
| 2026-04-21 17:01 | -34.50501 | -58.64879 | 1282 ft | 125 kts | 26° |
| 2026-04-21 17:01 | -34.49797 | -58.64280 | 1059 ft | 125 kts | 39° |
| 2026-04-21 17:02 | -34.49226 | -58.63603 | 871 ft | 110 kts | 46° |
| 2026-04-21 17:02 | -34.48742 | -58.62896 | 734 ft | 109 kts | 47° |
| 2026-04-21 17:02 | -34.48272 | -58.62192 | 644 ft | 114 kts | 42° |
| 2026-04-21 17:02 | -34.47610 | -58.61674 | 501 ft | 109 kts | 29° |
| 2026-04-21 17:03 | -34.47026 | -58.61040 | 339 ft | 113 kts | 49° |
| 2026-04-21 17:03 | -34.46545 | -58.60305 | 242 ft | 112 kts | 48° |
| 2026-04-21 17:03 | -34.45975 | -58.59690 | 50 ft | 105 kts | 37° |
| 2026-04-21 17:03 | -34.45543 | -58.59194 | 22 ft | 70 kts | 40° |
| 2026-04-21 17:04 | -34.45249 | -58.58853 | 22 ft | 49 kts | 41° |
| 2026-04-21 17:04 | -34.45037 | -58.58609 | 21 ft | 36 kts | 47° |
| 2026-04-21 17:04 | -34.44890 | -58.58427 | 21 ft | 23 kts | 45° |
| 2026-04-21 17:04 | -34.44878 | -58.58303 | 21 ft | 6 kts | 140° |
| 2026-04-21 17:05 | -34.44879 | -58.58302 | 21 ft | 1 kts | 140° |
| 2026-04-21 17:05 | -34.44967 | -58.58225 | 21 ft | 25 kts | 149° |
| 2026-04-21 17:05 | -34.45098 | -58.58135 | 21 ft | 19 kts | 150° |
| 2026-04-21 17:05 | -34.45196 | -58.58066 | 21 ft | 14 kts | 148° |
| 2026-04-21 17:06 | -34.45274 | -58.58010 | 21 ft | 17 kts | 150° |
| 2026-04-21 17:06 | -34.45339 | -58.57993 | 21 ft | 7 kts | 249° |
| 2026-04-21 17:06 | -34.45362 | -58.58056 | 21 ft | 8 kts | 244° |
| 2026-04-21 17:06 | -34.45380 | -58.58100 | 21 ft | 4 kts | 243° |
| 2026-04-21 17:07 | -34.45392 | -58.58115 | 21 ft | 6 kts | 158° |
| 2026-04-21 17:07 | -34.45410 | -58.58054 | 21 ft | 8 kts | 90° |